sensor_id;sensor_type;location;lat;lon;timestamp;P1;durP1;ratioP1;P2;durP2;ratioP2
2620;SDS011;1320;48.128;11.592;2023-04-15T00:00:37;9.40;;;4.43;;
2620;SDS011;1320;48.128;11.592;2023-04-15T00:03:03;11.03;;;3.63;;
2620;SDS011;1320;48.128;11.592;2023-04-15T00:05:31;5.67;;;3.53;;
2620;SDS011;1320;48.128;11.592;2023-04-15T00:07:57;7.73;;;3.57;;
2620;SDS011;1320;48.128;11.592;2023-04-15T00:10:23;8.97;;;2.93;;
2620;SDS011;1320;48.128;11.592;2023-04-15T00:12:49;5.03;;;3.00;;
2620;SDS011;1320;48.128;11.592;2023-04-15T00:15:16;9.03;;;2.90;;
2620;SDS011;1320;48.128;11.592;2023-04-15T00:17:42;7.47;;;3.60;;
2620;SDS011;1320;48.128;11.592;2023-04-15T00:20:07;6.20;;;3.00;;
2620;SDS011;1320;48.128;11.592;2023-04-15T00:22:34;5.60;;;2.67;;
2620;SDS011;1320;48.128;11.592;2023-04-15T00:25:00;7.83;;;3.10;;
2620;SDS011;1320;48.128;11.592;2023-04-15T00:27:26;7.07;;;3.10;;
2620;SDS011;1320;48.128;11.592;2023-04-15T00:29:52;5.90;;;2.97;;
2620;SDS011;1320;48.128;11.592;2023-04-15T00:32:18;6.30;;;3.00;;
2620;SDS011;1320;48.128;11.592;2023-04-15T00:34:44;5.47;;;3.00;;
2620;SDS011;1320;48.128;11.592;2023-04-15T00:37:10;6.80;;;3.60;;
2620;SDS011;1320;48.128;11.592;2023-04-15T00:39:36;7.33;;;4.20;;
2620;SDS011;1320;48.128;11.592;2023-04-15T00:42:05;6.73;;;3.40;;
2620;SDS011;1320;48.128;11.592;2023-04-15T00:44:31;4.78;;;3.10;;
2620;SDS011;1320;48.128;11.592;2023-04-15T00:46:58;8.10;;;3.77;;
2620;SDS011;1320;48.128;11.592;2023-04-15T00:49:24;6.20;;;3.30;;
2620;SDS011;1320;48.128;11.592;2023-04-15T00:51:52;9.97;;;3.47;;
2620;SDS011;1320;48.128;11.592;2023-04-15T00:54:18;6.03;;;3.87;;
2620;SDS011;1320;48.128;11.592;2023-04-15T00:56:43;10.30;;;3.97;;
2620;SDS011;1320;48.128;11.592;2023-04-15T00:59:09;4.10;;;2.90;;
2620;SDS011;1320;48.128;11.592;2023-04-15T01:01:35;7.63;;;5.37;;
2620;SDS011;1320;48.128;11.592;2023-04-15T01:04:02;9.00;;;4.50;;
2620;SDS011;1320;48.128;11.592;2023-04-15T01:06:29;6.90;;;3.43;;
2620;SDS011;1320;48.128;11.592;2023-04-15T01:08:56;6.93;;;3.70;;
2620;SDS011;1320;48.128;11.592;2023-04-15T01:11:22;9.23;;;4.50;;
2620;SDS011;1320;48.128;11.592;2023-04-15T01:13:49;10.43;;;4.30;;
2620;SDS011;1320;48.128;11.592;2023-04-15T01:16:16;7.37;;;4.00;;
2620;SDS011;1320;48.128;11.592;2023-04-15T01:18:42;6.90;;;4.10;;
2620;SDS011;1320;48.128;11.592;2023-04-15T01:21:09;5.93;;;4.10;;
2620;SDS011;1320;48.128;11.592;2023-04-15T01:23:35;6.07;;;3.77;;
2620;SDS011;1320;48.128;11.592;2023-04-15T01:26:05;4.83;;;3.03;;
2620;SDS011;1320;48.128;11.592;2023-04-15T01:28:33;6.13;;;4.38;;
2620;SDS011;1320;48.128;11.592;2023-04-15T01:31:05;6.23;;;4.13;;
2620;SDS011;1320;48.128;11.592;2023-04-15T01:33:32;7.60;;;4.60;;
2620;SDS011;1320;48.128;11.592;2023-04-15T01:35:57;5.63;;;3.53;;
2620;SDS011;1320;48.128;11.592;2023-04-15T01:38:24;9.40;;;4.30;;
2620;SDS011;1320;48.128;11.592;2023-04-15T01:40:50;6.90;;;4.03;;
2620;SDS011;1320;48.128;11.592;2023-04-15T01:43:16;6.10;;;3.70;;
2620;SDS011;1320;48.128;11.592;2023-04-15T01:45:43;8.93;;;4.50;;
2620;SDS011;1320;48.128;11.592;2023-04-15T01:48:08;6.83;;;3.87;;
2620;SDS011;1320;48.128;11.592;2023-04-15T01:50:34;6.33;;;4.43;;
2620;SDS011;1320;48.128;11.592;2023-04-15T01:53:02;7.50;;;3.70;;
2620;SDS011;1320;48.128;11.592;2023-04-15T01:55:28;6.67;;;5.00;;
2620;SDS011;1320;48.128;11.592;2023-04-15T01:57:54;7.20;;;4.20;;
2620;SDS011;1320;48.128;11.592;2023-04-15T02:00:20;6.20;;;4.13;;
2620;SDS011;1320;48.128;11.592;2023-04-15T02:02:47;6.43;;;3.70;;
2620;SDS011;1320;48.128;11.592;2023-04-15T02:05:13;9.00;;;4.23;;
2620;SDS011;1320;48.128;11.592;2023-04-15T02:07:41;7.17;;;4.07;;
2620;SDS011;1320;48.128;11.592;2023-04-15T02:10:07;7.60;;;4.27;;
2620;SDS011;1320;48.128;11.592;2023-04-15T02:12:34;6.87;;;3.80;;
2620;SDS011;1320;48.128;11.592;2023-04-15T02:15:00;6.57;;;4.07;;
2620;SDS011;1320;48.128;11.592;2023-04-15T02:17:26;8.10;;;4.30;;
2620;SDS011;1320;48.128;11.592;2023-04-15T02:19:51;6.77;;;4.20;;
2620;SDS011;1320;48.128;11.592;2023-04-15T02:22:17;7.70;;;3.33;;
2620;SDS011;1320;48.128;11.592;2023-04-15T02:24:43;10.67;;;4.20;;
2620;SDS011;1320;48.128;11.592;2023-04-15T02:27:10;11.53;;;5.03;;
2620;SDS011;1320;48.128;11.592;2023-04-15T02:29:39;7.40;;;4.03;;
2620;SDS011;1320;48.128;11.592;2023-04-15T02:32:05;9.60;;;4.00;;
2620;SDS011;1320;48.128;11.592;2023-04-15T02:34:31;8.87;;;4.17;;
2620;SDS011;1320;48.128;11.592;2023-04-15T02:36:57;4.73;;;2.80;;
2620;SDS011;1320;48.128;11.592;2023-04-15T02:39:23;6.17;;;4.03;;
2620;SDS011;1320;48.128;11.592;2023-04-15T02:41:49;7.77;;;4.23;;
2620;SDS011;1320;48.128;11.592;2023-04-15T02:44:17;5.07;;;3.23;;
2620;SDS011;1320;48.128;11.592;2023-04-15T02:46:47;6.53;;;3.30;;
2620;SDS011;1320;48.128;11.592;2023-04-15T02:49:16;7.27;;;3.87;;
2620;SDS011;1320;48.128;11.592;2023-04-15T02:51:45;6.30;;;4.17;;
2620;SDS011;1320;48.128;11.592;2023-04-15T02:54:13;5.10;;;3.50;;
2620;SDS011;1320;48.128;11.592;2023-04-15T02:56:40;8.53;;;3.83;;
2620;SDS011;1320;48.128;11.592;2023-04-15T02:59:06;6.90;;;3.73;;
2620;SDS011;1320;48.128;11.592;2023-04-15T03:01:31;7.80;;;3.47;;
2620;SDS011;1320;48.128;11.592;2023-04-15T03:03:57;7.53;;;4.00;;
2620;SDS011;1320;48.128;11.592;2023-04-15T03:06:23;6.23;;;4.03;;
2620;SDS011;1320;48.128;11.592;2023-04-15T03:08:49;4.70;;;3.17;;
2620;SDS011;1320;48.128;11.592;2023-04-15T03:11:15;9.10;;;3.80;;
2620;SDS011;1320;48.128;11.592;2023-04-15T03:17:03;7.43;;;2.92;;
2620;SDS011;1320;48.128;11.592;2023-04-15T03:19:29;9.50;;;3.33;;
2620;SDS011;1320;48.128;11.592;2023-04-15T03:21:54;7.20;;;3.50;;
2620;SDS011;1320;48.128;11.592;2023-04-15T03:24:20;7.60;;;3.33;;
2620;SDS011;1320;48.128;11.592;2023-04-15T03:26:46;8.43;;;3.97;;
2620;SDS011;1320;48.128;11.592;2023-04-15T03:29:11;10.00;;;3.80;;
2620;SDS011;1320;48.128;11.592;2023-04-15T03:31:37;6.50;;;3.33;;
2620;SDS011;1320;48.128;11.592;2023-04-15T03:34:03;6.23;;;3.40;;
2620;SDS011;1320;48.128;11.592;2023-04-15T03:36:29;7.00;;;3.00;;
2620;SDS011;1320;48.128;11.592;2023-04-15T03:38:58;7.27;;;3.60;;
2620;SDS011;1320;48.128;11.592;2023-04-15T03:41:26;7.30;;;3.47;;
2620;SDS011;1320;48.128;11.592;2023-04-15T03:43:52;10.32;;;4.60;;
2620;SDS011;1320;48.128;11.592;2023-04-15T03:46:18;11.13;;;4.70;;
2620;SDS011;1320;48.128;11.592;2023-04-15T03:48:44;5.50;;;3.57;;
2620;SDS011;1320;48.128;11.592;2023-04-15T03:51:09;6.60;;;4.23;;
2620;SDS011;1320;48.128;11.592;2023-04-15T03:53:35;7.50;;;3.30;;
2620;SDS011;1320;48.128;11.592;2023-04-15T03:56:01;9.20;;;3.50;;
2620;SDS011;1320;48.128;11.592;2023-04-15T03:58:26;7.87;;;3.80;;
2620;SDS011;1320;48.128;11.592;2023-04-15T04:00:52;7.20;;;3.03;;
2620;SDS011;1320;48.128;11.592;2023-04-15T04:03:18;6.27;;;3.47;;
2620;SDS011;1320;48.128;11.592;2023-04-15T04:05:44;7.77;;;3.53;;
2620;SDS011;1320;48.128;11.592;2023-04-15T04:08:10;4.80;;;3.03;;
2620;SDS011;1320;48.128;11.592;2023-04-15T04:10:37;6.85;;;3.70;;
2620;SDS011;1320;48.128;11.592;2023-04-15T04:13:03;7.37;;;3.50;;
2620;SDS011;1320;48.128;11.592;2023-04-15T04:15:29;6.30;;;3.90;;
2620;SDS011;1320;48.128;11.592;2023-04-15T04:17:55;6.93;;;3.40;;
2620;SDS011;1320;48.128;11.592;2023-04-15T04:20:21;8.40;;;3.30;;
2620;SDS011;1320;48.128;11.592;2023-04-15T04:22:46;4.90;;;3.00;;
2620;SDS011;1320;48.128;11.592;2023-04-15T04:25:12;5.93;;;2.93;;
2620;SDS011;1320;48.128;11.592;2023-04-15T04:27:38;7.18;;;3.60;;
2620;SDS011;1320;48.128;11.592;2023-04-15T04:30:04;5.80;;;3.60;;
2620;SDS011;1320;48.128;11.592;2023-04-15T04:32:30;5.67;;;3.10;;
2620;SDS011;1320;48.128;11.592;2023-04-15T04:34:56;5.67;;;3.00;;
2620;SDS011;1320;48.128;11.592;2023-04-15T04:37:22;4.83;;;3.33;;
2620;SDS011;1320;48.128;11.592;2023-04-15T04:39:48;7.73;;;2.77;;
2620;SDS011;1320;48.128;11.592;2023-04-15T04:42:14;5.13;;;2.55;;
2620;SDS011;1320;48.128;11.592;2023-04-15T04:44:40;4.53;;;2.70;;
2620;SDS011;1320;48.128;11.592;2023-04-15T04:47:06;6.27;;;3.33;;
2620;SDS011;1320;48.128;11.592;2023-04-15T04:49:32;5.00;;;2.53;;
2620;SDS011;1320;48.128;11.592;2023-04-15T04:51:58;5.80;;;3.30;;
2620;SDS011;1320;48.128;11.592;2023-04-15T04:54:24;6.90;;;3.40;;
2620;SDS011;1320;48.128;11.592;2023-04-15T04:56:51;10.20;;;3.65;;
2620;SDS011;1320;48.128;11.592;2023-04-15T04:59:17;7.43;;;3.37;;
2620;SDS011;1320;48.128;11.592;2023-04-15T05:01:42;6.50;;;3.00;;
2620;SDS011;1320;48.128;11.592;2023-04-15T05:07:37;4.30;;;2.70;;
2620;SDS011;1320;48.128;11.592;2023-04-15T05:10:03;6.70;;;2.93;;
2620;SDS011;1320;48.128;11.592;2023-04-15T05:12:30;5.95;;;2.47;;
2620;SDS011;1320;48.128;11.592;2023-04-15T05:14:56;5.70;;;2.77;;
2620;SDS011;1320;48.128;11.592;2023-04-15T05:17:21;7.80;;;2.70;;
2620;SDS011;1320;48.128;11.592;2023-04-15T05:19:47;4.70;;;2.77;;
2620;SDS011;1320;48.128;11.592;2023-04-15T05:22:13;4.80;;;3.10;;
2620;SDS011;1320;48.128;11.592;2023-04-15T05:24:38;5.30;;;3.13;;
2620;SDS011;1320;48.128;11.592;2023-04-15T05:27:04;8.33;;;3.40;;
2620;SDS011;1320;48.128;11.592;2023-04-15T05:29:30;11.30;;;3.27;;
2620;SDS011;1320;48.128;11.592;2023-04-15T05:31:56;4.57;;;2.50;;
2620;SDS011;1320;48.128;11.592;2023-04-15T05:34:21;5.30;;;2.60;;
2620;SDS011;1320;48.128;11.592;2023-04-15T05:36:47;4.33;;;2.60;;
2620;SDS011;1320;48.128;11.592;2023-04-15T05:39:13;4.00;;;2.67;;
2620;SDS011;1320;48.128;11.592;2023-04-15T05:41:38;4.27;;;2.33;;
2620;SDS011;1320;48.128;11.592;2023-04-15T05:44:04;6.20;;;2.63;;
2620;SDS011;1320;48.128;11.592;2023-04-15T05:46:30;5.80;;;2.60;;
2620;SDS011;1320;48.128;11.592;2023-04-15T05:48:55;4.10;;;2.50;;
2620;SDS011;1320;48.128;11.592;2023-04-15T05:51:21;6.07;;;2.07;;
2620;SDS011;1320;48.128;11.592;2023-04-15T05:53:47;9.07;;;2.57;;
2620;SDS011;1320;48.128;11.592;2023-04-15T05:56:12;5.50;;;2.20;;
2620;SDS011;1320;48.128;11.592;2023-04-15T05:58:38;4.30;;;2.53;;
2620;SDS011;1320;48.128;11.592;2023-04-15T06:01:03;4.30;;;1.90;;
2620;SDS011;1320;48.128;11.592;2023-04-15T06:03:29;4.87;;;2.27;;
2620;SDS011;1320;48.128;11.592;2023-04-15T06:05:55;4.50;;;2.50;;
2620;SDS011;1320;48.128;11.592;2023-04-15T06:08:21;4.93;;;2.13;;
2620;SDS011;1320;48.128;11.592;2023-04-15T06:10:46;6.40;;;2.80;;
2620;SDS011;1320;48.128;11.592;2023-04-15T06:13:12;4.80;;;2.13;;
2620;SDS011;1320;48.128;11.592;2023-04-15T06:15:38;5.83;;;3.13;;
2620;SDS011;1320;48.128;11.592;2023-04-15T06:18:03;3.63;;;2.40;;
2620;SDS011;1320;48.128;11.592;2023-04-15T06:20:29;6.80;;;3.30;;
2620;SDS011;1320;48.128;11.592;2023-04-15T06:22:55;4.50;;;2.20;;
2620;SDS011;1320;48.128;11.592;2023-04-15T06:25:21;6.50;;;1.90;;
2620;SDS011;1320;48.128;11.592;2023-04-15T06:27:47;3.17;;;1.93;;
2620;SDS011;1320;48.128;11.592;2023-04-15T06:30:13;4.57;;;2.23;;
2620;SDS011;1320;48.128;11.592;2023-04-15T06:32:39;4.90;;;2.43;;
2620;SDS011;1320;48.128;11.592;2023-04-15T06:35:05;3.90;;;2.20;;
2620;SDS011;1320;48.128;11.592;2023-04-15T06:37:30;7.33;;;2.50;;
2620;SDS011;1320;48.128;11.592;2023-04-15T06:39:56;7.30;;;2.40;;
2620;SDS011;1320;48.128;11.592;2023-04-15T06:42:22;6.80;;;2.43;;
2620;SDS011;1320;48.128;11.592;2023-04-15T06:44:48;4.90;;;2.23;;
2620;SDS011;1320;48.128;11.592;2023-04-15T06:47:14;7.30;;;2.50;;
2620;SDS011;1320;48.128;11.592;2023-04-15T06:49:40;4.20;;;2.30;;
2620;SDS011;1320;48.128;11.592;2023-04-15T06:52:07;4.57;;;2.30;;
2620;SDS011;1320;48.128;11.592;2023-04-15T06:54:34;3.90;;;2.03;;
2620;SDS011;1320;48.128;11.592;2023-04-15T06:56:59;4.73;;;2.00;;
2620;SDS011;1320;48.128;11.592;2023-04-15T06:59:25;5.80;;;2.57;;
2620;SDS011;1320;48.128;11.592;2023-04-15T07:01:51;4.10;;;2.20;;
2620;SDS011;1320;48.128;11.592;2023-04-15T07:04:17;8.03;;;1.97;;
2620;SDS011;1320;48.128;11.592;2023-04-15T07:06:42;4.70;;;2.10;;
2620;SDS011;1320;48.128;11.592;2023-04-15T07:09:08;6.30;;;1.77;;
2620;SDS011;1320;48.128;11.592;2023-04-15T07:11:34;4.30;;;2.50;;
2620;SDS011;1320;48.128;11.592;2023-04-15T07:14:00;6.47;;;2.37;;
2620;SDS011;1320;48.128;11.592;2023-04-15T07:16:26;5.40;;;2.20;;
2620;SDS011;1320;48.128;11.592;2023-04-15T07:18:52;4.23;;;2.00;;
2620;SDS011;1320;48.128;11.592;2023-04-15T07:21:18;7.20;;;2.00;;
2620;SDS011;1320;48.128;11.592;2023-04-15T07:23:43;8.13;;;2.57;;
2620;SDS011;1320;48.128;11.592;2023-04-15T07:26:09;5.70;;;2.23;;
2620;SDS011;1320;48.128;11.592;2023-04-15T07:28:35;3.63;;;1.97;;
2620;SDS011;1320;48.128;11.592;2023-04-15T07:31:00;4.20;;;2.00;;
2620;SDS011;1320;48.128;11.592;2023-04-15T07:33:26;6.47;;;2.13;;
2620;SDS011;1320;48.128;11.592;2023-04-15T07:35:52;4.83;;;1.70;;
2620;SDS011;1320;48.128;11.592;2023-04-15T07:38:18;4.33;;;2.30;;
2620;SDS011;1320;48.128;11.592;2023-04-15T07:40:43;8.63;;;2.27;;
2620;SDS011;1320;48.128;11.592;2023-04-15T07:43:10;6.80;;;2.47;;
2620;SDS011;1320;48.128;11.592;2023-04-15T07:45:37;5.77;;;2.87;;
2620;SDS011;1320;48.128;11.592;2023-04-15T07:48:03;3.00;;;1.60;;
2620;SDS011;1320;48.128;11.592;2023-04-15T07:50:29;4.27;;;2.23;;
2620;SDS011;1320;48.128;11.592;2023-04-15T07:52:54;5.10;;;2.70;;
2620;SDS011;1320;48.128;11.592;2023-04-15T07:55:21;3.80;;;1.70;;
2620;SDS011;1320;48.128;11.592;2023-04-15T07:57:47;13.63;;;2.17;;
2620;SDS011;1320;48.128;11.592;2023-04-15T08:00:13;4.30;;;2.10;;
2620;SDS011;1320;48.128;11.592;2023-04-15T08:02:40;4.90;;;2.20;;
2620;SDS011;1320;48.128;11.592;2023-04-15T08:05:07;3.40;;;1.90;;
2620;SDS011;1320;48.128;11.592;2023-04-15T08:07:34;4.80;;;1.63;;
2620;SDS011;1320;48.128;11.592;2023-04-15T08:10:01;6.03;;;1.80;;
2620;SDS011;1320;48.128;11.592;2023-04-15T08:12:27;4.13;;;1.87;;
2620;SDS011;1320;48.128;11.592;2023-04-15T08:14:52;5.10;;;1.60;;
2620;SDS011;1320;48.128;11.592;2023-04-15T08:17:19;3.37;;;1.60;;
2620;SDS011;1320;48.128;11.592;2023-04-15T08:19:45;10.57;;;2.30;;
2620;SDS011;1320;48.128;11.592;2023-04-15T08:22:12;4.17;;;2.30;;
2620;SDS011;1320;48.128;11.592;2023-04-15T08:24:38;3.83;;;2.30;;
2620;SDS011;1320;48.128;11.592;2023-04-15T08:27:03;3.63;;;2.13;;
2620;SDS011;1320;48.128;11.592;2023-04-15T08:29:30;7.63;;;2.83;;
2620;SDS011;1320;48.128;11.592;2023-04-15T08:31:56;3.73;;;2.10;;
2620;SDS011;1320;48.128;11.592;2023-04-15T08:34:24;4.60;;;2.30;;
2620;SDS011;1320;48.128;11.592;2023-04-15T08:36:50;4.13;;;2.40;;
2620;SDS011;1320;48.128;11.592;2023-04-15T08:39:16;4.13;;;2.50;;
2620;SDS011;1320;48.128;11.592;2023-04-15T08:41:46;3.37;;;1.83;;
2620;SDS011;1320;48.128;11.592;2023-04-15T08:44:15;3.37;;;2.03;;
2620;SDS011;1320;48.128;11.592;2023-04-15T08:46:42;6.17;;;2.13;;
2620;SDS011;1320;48.128;11.592;2023-04-15T08:49:10;5.60;;;2.50;;
2620;SDS011;1320;48.128;11.592;2023-04-15T08:51:40;5.67;;;2.67;;
2620;SDS011;1320;48.128;11.592;2023-04-15T08:54:06;4.20;;;2.57;;
2620;SDS011;1320;48.128;11.592;2023-04-15T08:56:33;2.90;;;1.90;;
2620;SDS011;1320;48.128;11.592;2023-04-15T08:58:59;2.73;;;1.83;;
2620;SDS011;1320;48.128;11.592;2023-04-15T09:01:25;5.80;;;2.30;;
2620;SDS011;1320;48.128;11.592;2023-04-15T09:03:51;4.30;;;2.27;;
2620;SDS011;1320;48.128;11.592;2023-04-15T09:06:19;3.17;;;2.07;;
2620;SDS011;1320;48.128;11.592;2023-04-15T09:08:45;3.40;;;2.50;;
2620;SDS011;1320;48.128;11.592;2023-04-15T09:11:11;6.23;;;2.63;;
2620;SDS011;1320;48.128;11.592;2023-04-15T09:13:37;5.50;;;2.50;;
2620;SDS011;1320;48.128;11.592;2023-04-15T09:16:04;4.53;;;1.97;;
2620;SDS011;1320;48.128;11.592;2023-04-15T09:18:31;7.77;;;3.00;;
2620;SDS011;1320;48.128;11.592;2023-04-15T09:23:31;5.60;;;2.50;;
2620;SDS011;1320;48.128;11.592;2023-04-15T09:25:58;5.77;;;3.13;;
2620;SDS011;1320;48.128;11.592;2023-04-15T09:28:23;4.47;;;2.47;;
2620;SDS011;1320;48.128;11.592;2023-04-15T09:30:51;4.30;;;2.47;;
2620;SDS011;1320;48.128;11.592;2023-04-15T09:33:20;3.60;;;2.27;;
2620;SDS011;1320;48.128;11.592;2023-04-15T09:35:56;7.30;;;3.03;;
2620;SDS011;1320;48.128;11.592;2023-04-15T09:38:29;6.60;;;2.80;;
2620;SDS011;1320;48.128;11.592;2023-04-15T09:40:56;3.73;;;2.80;;
2620;SDS011;1320;48.128;11.592;2023-04-15T09:43:35;6.40;;;3.47;;
2620;SDS011;1320;48.128;11.592;2023-04-15T09:46:05;7.30;;;3.23;;
2620;SDS011;1320;48.128;11.592;2023-04-15T09:48:31;5.60;;;3.30;;
2620;SDS011;1320;48.128;11.592;2023-04-15T09:50:57;9.10;;;3.53;;
2620;SDS011;1320;48.128;11.592;2023-04-15T09:53:24;4.27;;;2.87;;
2620;SDS011;1320;48.128;11.592;2023-04-15T09:55:51;9.13;;;4.10;;
2620;SDS011;1320;48.128;11.592;2023-04-15T10:00:47;6.90;;;3.30;;
2620;SDS011;1320;48.128;11.592;2023-04-15T10:06:37;6.27;;;3.80;;
2620;SDS011;1320;48.128;11.592;2023-04-15T10:09:04;5.30;;;3.77;;
2620;SDS011;1320;48.128;11.592;2023-04-15T10:11:31;8.17;;;4.60;;
2620;SDS011;1320;48.128;11.592;2023-04-15T10:13:59;12.10;;;4.57;;
2620;SDS011;1320;48.128;11.592;2023-04-15T10:16:25;7.13;;;3.70;;
2620;SDS011;1320;48.128;11.592;2023-04-15T10:18:55;4.93;;;3.80;;
2620;SDS011;1320;48.128;11.592;2023-04-15T10:21:22;6.93;;;3.63;;
2620;SDS011;1320;48.128;11.592;2023-04-15T10:23:48;6.30;;;3.33;;
2620;SDS011;1320;48.128;11.592;2023-04-15T10:26:15;5.80;;;4.37;;
2620;SDS011;1320;48.128;11.592;2023-04-15T10:28:44;5.80;;;3.67;;
2620;SDS011;1320;48.128;11.592;2023-04-15T10:31:13;8.53;;;4.33;;
2620;SDS011;1320;48.128;11.592;2023-04-15T10:33:39;8.07;;;4.33;;
2620;SDS011;1320;48.128;11.592;2023-04-15T10:36:06;5.13;;;4.47;;
2620;SDS011;1320;48.128;11.592;2023-04-15T10:38:33;5.77;;;3.77;;
2620;SDS011;1320;48.128;11.592;2023-04-15T10:41:16;6.70;;;3.90;;
2620;SDS011;1320;48.128;11.592;2023-04-15T10:46:57;11.43;;;3.80;;
2620;SDS011;1320;48.128;11.592;2023-04-15T10:51:57;5.97;;;4.10;;
2620;SDS011;1320;48.128;11.592;2023-04-15T11:00:19;9.70;;;4.40;;
2620;SDS011;1320;48.128;11.592;2023-04-15T11:08:04;5.30;;;4.20;;
2620;SDS011;1320;48.128;11.592;2023-04-15T11:17:59;7.00;;;4.40;;
2620;SDS011;1320;48.128;11.592;2023-04-15T11:20:33;7.10;;;3.70;;
2620;SDS011;1320;48.128;11.592;2023-04-15T11:22:59;7.30;;;5.20;;
2620;SDS011;1320;48.128;11.592;2023-04-15T11:25:26;5.03;;;4.03;;
2620;SDS011;1320;48.128;11.592;2023-04-15T11:27:58;5.97;;;4.67;;
2620;SDS011;1320;48.128;11.592;2023-04-15T11:30:27;5.00;;;4.20;;
2620;SDS011;1320;48.128;11.592;2023-04-15T11:32:56;5.57;;;3.97;;
2620;SDS011;1320;48.128;11.592;2023-04-15T11:35:24;9.73;;;4.93;;
2620;SDS011;1320;48.128;11.592;2023-04-15T11:37:49;6.57;;;4.00;;
2620;SDS011;1320;48.128;11.592;2023-04-15T11:40:16;6.47;;;5.30;;
2620;SDS011;1320;48.128;11.592;2023-04-15T11:42:46;9.10;;;4.57;;
2620;SDS011;1320;48.128;11.592;2023-04-15T11:45:31;7.73;;;4.77;;
2620;SDS011;1320;48.128;11.592;2023-04-15T11:48:04;5.43;;;4.63;;
2620;SDS011;1320;48.128;11.592;2023-04-15T11:50:31;6.80;;;4.50;;
2620;SDS011;1320;48.128;11.592;2023-04-15T11:52:58;9.90;;;4.60;;
2620;SDS011;1320;48.128;11.592;2023-04-15T11:55:26;6.10;;;4.90;;
2620;SDS011;1320;48.128;11.592;2023-04-15T12:00:37;6.63;;;5.07;;
2620;SDS011;1320;48.128;11.592;2023-04-15T12:03:38;7.03;;;4.47;;
2620;SDS011;1320;48.128;11.592;2023-04-15T12:11:18;6.00;;;4.80;;
2620;SDS011;1320;48.128;11.592;2023-04-15T12:14:05;6.50;;;4.77;;
2620;SDS011;1320;48.128;11.592;2023-04-15T12:16:31;8.47;;;4.00;;
2620;SDS011;1320;48.128;11.592;2023-04-15T12:19:06;5.53;;;4.40;;
2620;SDS011;1320;48.128;11.592;2023-04-15T12:21:35;6.40;;;4.17;;
2620;SDS011;1320;48.128;11.592;2023-04-15T12:24:04;7.43;;;4.10;;
2620;SDS011;1320;48.128;11.592;2023-04-15T12:29:03;6.30;;;4.60;;
2620;SDS011;1320;48.128;11.592;2023-04-15T12:31:31;8.30;;;4.80;;
2620;SDS011;1320;48.128;11.592;2023-04-15T12:33:58;7.00;;;3.70;;
2620;SDS011;1320;48.128;11.592;2023-04-15T12:36:25;10.13;;;4.10;;
2620;SDS011;1320;48.128;11.592;2023-04-15T12:38:52;10.83;;;4.37;;
2620;SDS011;1320;48.128;11.592;2023-04-15T12:41:19;6.63;;;4.33;;
2620;SDS011;1320;48.128;11.592;2023-04-15T12:43:46;7.43;;;3.83;;
2620;SDS011;1320;48.128;11.592;2023-04-15T12:46:14;10.43;;;3.13;;
2620;SDS011;1320;48.128;11.592;2023-04-15T12:48:40;5.87;;;4.10;;
2620;SDS011;1320;48.128;11.592;2023-04-15T12:51:06;7.50;;;3.30;;
2620;SDS011;1320;48.128;11.592;2023-04-15T12:53:32;6.27;;;3.37;;
2620;SDS011;1320;48.128;11.592;2023-04-15T12:55:57;5.30;;;4.10;;
2620;SDS011;1320;48.128;11.592;2023-04-15T12:58:23;3.80;;;3.37;;
2620;SDS011;1320;48.128;11.592;2023-04-15T13:00:50;5.10;;;3.03;;
2620;SDS011;1320;48.128;11.592;2023-04-15T13:03:15;4.13;;;3.07;;
2620;SDS011;1320;48.128;11.592;2023-04-15T13:05:41;6.57;;;3.23;;
2620;SDS011;1320;48.128;11.592;2023-04-15T13:08:07;7.27;;;2.90;;
2620;SDS011;1320;48.128;11.592;2023-04-15T13:10:34;4.83;;;2.93;;
2620;SDS011;1320;48.128;11.592;2023-04-15T13:13:03;5.17;;;3.30;;
2620;SDS011;1320;48.128;11.592;2023-04-15T13:15:29;5.20;;;2.67;;
2620;SDS011;1320;48.128;11.592;2023-04-15T13:17:55;3.63;;;2.83;;
2620;SDS011;1320;48.128;11.592;2023-04-15T13:20:21;4.70;;;2.80;;
2620;SDS011;1320;48.128;11.592;2023-04-15T13:22:46;4.20;;;3.00;;
2620;SDS011;1320;48.128;11.592;2023-04-15T13:25:12;5.23;;;3.00;;
2620;SDS011;1320;48.128;11.592;2023-04-15T13:27:38;5.03;;;2.83;;
2620;SDS011;1320;48.128;11.592;2023-04-15T13:30:04;6.07;;;3.80;;
2620;SDS011;1320;48.128;11.592;2023-04-15T13:32:30;7.10;;;3.93;;
2620;SDS011;1320;48.128;11.592;2023-04-15T13:34:56;7.33;;;3.87;;
2620;SDS011;1320;48.128;11.592;2023-04-15T13:37:25;6.57;;;3.60;;
2620;SDS011;1320;48.128;11.592;2023-04-15T13:39:52;4.47;;;3.30;;
2620;SDS011;1320;48.128;11.592;2023-04-15T13:42:18;5.43;;;3.80;;
2620;SDS011;1320;48.128;11.592;2023-04-15T13:44:43;6.23;;;4.20;;
2620;SDS011;1320;48.128;11.592;2023-04-15T13:47:09;4.70;;;3.50;;
2620;SDS011;1320;48.128;11.592;2023-04-15T13:49:35;9.07;;;4.20;;
2620;SDS011;1320;48.128;11.592;2023-04-15T13:52:01;7.93;;;4.37;;
2620;SDS011;1320;48.128;11.592;2023-04-15T13:57:49;6.77;;;4.53;;
2620;SDS011;1320;48.128;11.592;2023-04-15T14:00:15;7.83;;;3.93;;
2620;SDS011;1320;48.128;11.592;2023-04-15T14:02:41;5.00;;;4.27;;
2620;SDS011;1320;48.128;11.592;2023-04-15T14:05:07;6.90;;;3.90;;
2620;SDS011;1320;48.128;11.592;2023-04-15T14:07:33;5.13;;;3.80;;
2620;SDS011;1320;48.128;11.592;2023-04-15T14:09:59;6.10;;;3.23;;
2620;SDS011;1320;48.128;11.592;2023-04-15T14:12:24;4.60;;;3.50;;
2620;SDS011;1320;48.128;11.592;2023-04-15T14:14:50;4.90;;;3.90;;
2620;SDS011;1320;48.128;11.592;2023-04-15T14:17:16;3.83;;;2.93;;
2620;SDS011;1320;48.128;11.592;2023-04-15T14:19:41;7.20;;;3.33;;
2620;SDS011;1320;48.128;11.592;2023-04-15T14:22:07;5.13;;;3.37;;
2620;SDS011;1320;48.128;11.592;2023-04-15T14:24:33;5.20;;;3.23;;
2620;SDS011;1320;48.128;11.592;2023-04-15T14:26:58;5.43;;;3.13;;
2620;SDS011;1320;48.128;11.592;2023-04-15T14:29:26;4.00;;;2.97;;
2620;SDS011;1320;48.128;11.592;2023-04-15T14:31:52;5.30;;;2.77;;
2620;SDS011;1320;48.128;11.592;2023-04-15T14:34:17;5.00;;;3.10;;
2620;SDS011;1320;48.128;11.592;2023-04-15T14:36:43;6.23;;;3.57;;
2620;SDS011;1320;48.128;11.592;2023-04-15T14:39:09;5.73;;;4.20;;
2620;SDS011;1320;48.128;11.592;2023-04-15T14:41:35;4.60;;;3.30;;
2620;SDS011;1320;48.128;11.592;2023-04-15T14:44:01;5.90;;;3.70;;
2620;SDS011;1320;48.128;11.592;2023-04-15T14:46:27;5.70;;;3.83;;
2620;SDS011;1320;48.128;11.592;2023-04-15T14:48:53;4.17;;;3.30;;
2620;SDS011;1320;48.128;11.592;2023-04-15T14:51:18;5.20;;;3.23;;
2620;SDS011;1320;48.128;11.592;2023-04-15T14:53:44;4.17;;;2.90;;
2620;SDS011;1320;48.128;11.592;2023-04-15T14:56:10;6.03;;;4.00;;
2620;SDS011;1320;48.128;11.592;2023-04-15T14:58:36;5.63;;;3.63;;
2620;SDS011;1320;48.128;11.592;2023-04-15T15:01:05;4.50;;;3.23;;
2620;SDS011;1320;48.128;11.592;2023-04-15T15:03:31;5.00;;;3.40;;
2620;SDS011;1320;48.128;11.592;2023-04-15T15:05:57;4.63;;;3.53;;
2620;SDS011;1320;48.128;11.592;2023-04-15T15:08:23;3.97;;;3.57;;
2620;SDS011;1320;48.128;11.592;2023-04-15T15:10:49;7.70;;;3.93;;
2620;SDS011;1320;48.128;11.592;2023-04-15T15:13:15;4.30;;;3.50;;
2620;SDS011;1320;48.128;11.592;2023-04-15T15:15:42;6.00;;;4.27;;
2620;SDS011;1320;48.128;11.592;2023-04-15T15:18:08;5.33;;;4.03;;
2620;SDS011;1320;48.128;11.592;2023-04-15T15:20:34;4.50;;;3.40;;
2620;SDS011;1320;48.128;11.592;2023-04-15T15:23:00;5.63;;;3.57;;
2620;SDS011;1320;48.128;11.592;2023-04-15T15:25:26;5.43;;;4.00;;
2620;SDS011;1320;48.128;11.592;2023-04-15T15:27:52;7.67;;;4.43;;
2620;SDS011;1320;48.128;11.592;2023-04-15T15:30:17;6.20;;;4.00;;
2620;SDS011;1320;48.128;11.592;2023-04-15T15:32:43;5.57;;;3.77;;
2620;SDS011;1320;48.128;11.592;2023-04-15T15:35:09;5.23;;;3.37;;
2620;SDS011;1320;48.128;11.592;2023-04-15T15:37:35;5.43;;;3.73;;
2620;SDS011;1320;48.128;11.592;2023-04-15T15:40:04;4.83;;;4.20;;
2620;SDS011;1320;48.128;11.592;2023-04-15T15:42:31;5.20;;;3.70;;
2620;SDS011;1320;48.128;11.592;2023-04-15T15:44:57;6.20;;;4.10;;
2620;SDS011;1320;48.128;11.592;2023-04-15T15:47:23;7.37;;;4.33;;
2620;SDS011;1320;48.128;11.592;2023-04-15T15:49:50;9.90;;;4.97;;